Bela Vista do Paraiso, Brazil
Current Conditions -  °F | °C
As of 9:00 PM on Saturday 20 Dec 2014 (Local Time) from SBLO Reporting Station
Scattered Clouds Scattered Clouds  
Wind Chill: 86°   Ceiling: Unl
Heat Index: 90°   Visibility: 6mi
Dew Point: 70°   Wind: 7mph
Humidity: 58%   Direction: 20°NNE
Pressure: 29.77"   Gusts: NA
Location:  23°S, 51.19°W
Report Text: SBLO 202300Z 02006KT 9999 FEW020 SCT070 30/21 Q1008
Loading
Personal Weather Stations






























Interactive Weather Map New forecast layout! Learn more

10-Day Weather Forecast

Advertisements
Track Severe Weather on mobile